95MI weather

Evad Enterprises LLC Airport
Luther, Michigan, United States

Public forecast

Using degrees Fahrenheit for public forecast. Weather courtesy of forecast.io.

Closest aviation weather report (METAR) to Evad Enterprises LLC Airport

Closest report is Wexford County Airport, 17.6 nm (32.5 km) NE. Retrieved 2019/10/21 01:35 UTC (7 seconds ago):

KCAD 210135Z AUTO 00000KT 10SM CLR 06/05 A2996 RMK AO2 T00670054

Closest aviation forecast (TAF) to Evad Enterprises LLC Airport

Closest forecast is Manistee Co Blacker Airport, 24.9 nm (46.0 km) WNW. Retrieved 2019-10-21 00:27 UTC (1 hour ago):

TAF KMBL 202325Z 2100/2124 00000KT 2SM BR OVC003 FM210500 11006KT P6SM FEW006 BKN250 FM210900 11010G19KT P6SM BKN090 WS010/14030KT FM211600 12013G29KT 6SM -SHRA OVC045 WS020/14040KT FM212000 14017G35KT 6SM -SHRA OVC012 WS020/15055KT FM212300 16013G29KT 6SM -SHRA BKN021